Time;durP1;ratioP1;P1;durP2;ratioP2;P2;SDS_P1;SDS_P2;PMS_P1;PMS_P2;Temp;Humidity;BMP_temperature;BMP_pressure;BME280_temperature;BME280_humidity;BME280_pressure;Samples;Min_cycle;Max_cycle;Signal;HPM_P1;HPM_P2
2022/08/13 00:02:32;;;;;;;7.75;3.28;;;;;;;24.01;52.07;101770.22;5128980;28;20919;-56
2022/08/13 00:05:24;;;;;;;7.28;3.88;;;;;;;24.02;52.17;101776.44;5141837;28;20454;-54
2022/08/13 00:07:56;;;;;;;5.40;3.95;;;;;;;23.98;52.06;101775.22;5139382;28;20793;-51
2022/08/13 00:10:29;;;;;;;6.35;3.90;;;;;;;23.97;52.15;101768.16;5141446;28;21581;-63
2022/08/13 00:13:03;;;;;;;6.03;3.88;;;;;;;23.95;52.11;101773.78;5129054;28;20823;-56
2022/08/13 00:15:39;;;;;;;4.90;3.92;;;;;;;23.90;52.15;101769.03;5139169;28;20941;-57
2022/08/13 00:18:17;;;;;;;8.25;4.00;;;;;;;23.85;52.13;101770.75;5129016;28;20469;-57
2022/08/13 00:20:53;;;;;;;8.88;4.40;;;;;;;23.80;52.06;101774.06;5128932;28;20904;-56
2022/08/13 00:23:29;;;;;;;7.27;3.90;;;;;;;23.78;52.18;101770.75;5133976;28;20433;-56
2022/08/13 00:26:01;;;;;;;8.67;4.17;;;;;;;23.77;52.37;101773.66;5143269;28;20511;-57
2022/08/13 00:28:35;;;;;;;8.77;3.92;;;;;;;23.74;52.47;101769.53;5135639;28;21387;-56
2022/08/13 00:31:07;;;;;;;7.90;4.03;;;;;;;23.70;52.50;101769.13;5131850;28;20757;-57
2022/08/13 00:33:41;;;;;;;8.20;4.22;;;;;;;23.66;52.65;101767.03;5136166;28;20794;-58
2022/08/13 00:36:13;;;;;;;7.32;4.30;;;;;;;23.62;52.72;101765.81;5142140;28;20473;-55
2022/08/13 00:38:45;;;;;;;9.25;4.30;;;;;;;23.61;52.59;101764.16;5136183;28;20477;-57
2022/08/13 00:44:06;;;;;;;7.72;4.50;;;;;;;23.58;52.82;101767.28;5130127;28;21047;-48
2022/08/13 00:46:41;;;;;;;8.53;4.30;;;;;;;23.53;53.07;101767.09;5148780;28;21237;-56
2022/08/13 00:49:14;;;;;;;8.15;4.32;;;;;;;;;;5138592;28;20947;-58
2022/08/13 00:51:46;;;;;;;7.95;4.38;;;;;;;23.43;53.08;101762.16;5122004;28;20956;-55
2022/08/13 00:54:19;;;;;;;5.75;4.20;;;;;;;23.42;53.20;101768.59;5128105;28;20685;-55
2022/08/13 00:56:52;;;;;;;7.25;4.32;;;;;;;23.37;53.38;101760.31;5136841;28;20506;-56
2022/08/13 00:59:25;;;;;;;6.60;4.80;;;;;;;23.32;53.52;101765.50;5133571;28;20846;-56
2022/08/13 01:01:58;;;;;;;9.05;4.60;;;;;;;23.28;53.64;101759.69;5140063;28;20536;-56
2022/08/13 01:04:32;;;;;;;6.90;4.73;;;;;;;23.24;53.80;101753.91;5128659;28;20574;-56
2022/08/13 01:07:05;;;;;;;7.50;4.75;;;;;;;23.22;53.76;101755.97;5136780;28;20487;-56
2022/08/13 01:09:56;;;;;;;6.65;4.70;;;;;;;23.23;53.95;101756.84;5126791;28;20441;-58
2022/08/13 01:12:29;;;;;;;7.13;4.72;;;;;;;23.21;53.71;101758.91;5137462;28;20491;-55
2022/08/13 01:15:02;;;;;;;6.68;5.00;;;;;;;23.19;53.86;101756.41;5127036;28;20420;-57
2022/08/13 01:17:35;;;;;;;7.37;5.20;;;;;;;23.16;53.90;101761.41;5141095;28;20486;-55
2022/08/13 01:20:13;;;;;;;6.70;4.57;;;;;;;23.08;54.08;101750.84;5129339;28;20512;-57
2022/08/13 01:22:49;;;;;;;8.47;4.67;;;;;;;23.11;54.10;101758.53;5139846;28;20515;-56
2022/08/13 01:25:25;;;;;;;6.82;4.03;;;;;;;23.08;54.16;101764.34;5140450;28;20446;-55
2022/08/13 01:27:57;;;;;;;6.93;4.45;;;;;;;23.05;54.05;101753.97;5142404;28;20966;-56
2022/08/13 01:30:32;;;;;;;9.82;4.82;;;;;;;22.94;54.17;101742.78;5141140;28;20719;-53
2022/08/13 01:33:08;;;;;;;7.93;4.93;;;;;;;23.02;54.08;101774.06;5134367;28;20956;-57
2022/08/13 01:35:41;;;;;;;7.70;4.50;;;;;;;22.98;54.25;101760.19;5140823;28;20497;-56
2022/08/13 01:38:15;;;;;;;9.82;4.72;;;;;;;22.97;54.18;101757.69;5127135;28;20436;-56
2022/08/13 01:40:48;;;;;;;8.90;4.43;;;;;;;22.93;54.24;101751.06;5130780;28;20427;-57
2022/08/13 01:43:22;;;;;;;7.22;4.47;;;;;;;22.92;54.37;101752.09;5130266;28;20454;-57
2022/08/13 01:45:54;;;;;;;5.72;4.18;;;;;;;22.85;54.39;101754.78;5140258;28;20794;-55
2022/08/13 01:51:23;;;;;;;10.90;4.43;;;;;;;22.80;54.48;101759.97;5142976;28;20909;-57
2022/08/13 01:54:00;;;;;;;7.87;4.77;;;;;;;22.75;54.69;101762.47;5128961;28;20913;-58
2022/08/13 01:56:33;;;;;;;8.32;4.25;;;;;;;22.70;54.74;101759.56;5138059;28;20755;-57
2022/08/13 01:59:06;;;;;;;9.10;4.68;;;;;;;22.66;54.67;101761.00;5126240;28;20806;-57
2022/08/13 02:01:38;;;;;;;7.70;4.77;;;;;;;22.62;54.87;101765.16;5125427;28;20451;-56
2022/08/13 02:04:13;;;;;;;6.40;4.90;;;;;;;22.56;54.87;101762.25;5135576;28;20918;-58
2022/08/13 02:06:45;;;;;;;7.47;4.13;;;;;;;22.52;54.94;101760.19;5139947;28;20854;-56
2022/08/13 02:09:19;;;;;;;11.50;4.20;;;;;;;22.47;54.88;101757.28;5143325;28;20819;-58
2022/08/13 02:11:52;;;;;;;6.43;3.80;;;;;;;22.45;54.93;101752.13;5130198;28;20464;-57
2022/08/13 02:14:24;;;;;;;6.82;3.80;;;;;;;22.41;55.04;101753.53;5129536;28;20503;-58
2022/08/13 02:16:56;;;;;;;6.72;4.15;;;;;;;22.38;54.76;101756.66;5139550;28;20429;-57
2022/08/13 02:19:29;;;;;;;5.75;3.35;;;;;;;22.36;54.82;101761.44;5133096;28;20971;-59
2022/08/13 02:22:01;;;;;;;7.40;3.60;;;;;;;22.34;54.78;101763.50;5137103;28;20455;-58
2022/08/13 02:24:35;;;;;;;6.05;3.63;;;;;;;22.31;54.68;101761.22;5138786;28;20562;-47
2022/08/13 02:27:08;;;;;;;6.88;3.92;;;;;;;22.28;54.59;101765.13;5140591;28;20472;-57
2022/08/13 02:29:44;;;;;;;5.38;3.28;;;;;;;22.28;54.70;101775.06;5137904;28;20924;-56
2022/08/13 02:32:17;;;;;;;6.35;3.40;;;;;;;22.26;54.64;101766.38;5126814;28;20815;-56
2022/08/13 02:34:50;;;;;;;8.38;3.65;;;;;;;22.23;54.50;101764.09;5119739;28;20432;-57
2022/08/13 02:37:23;;;;;;;6.23;3.60;;;;;;;22.21;54.38;101758.91;5133261;28;21061;-58
2022/08/13 02:39:57;;;;;;;4.85;3.30;;;;;;;22.20;54.37;101767.19;5151500;28;20423;-55
2022/08/13 02:42:31;;;;;;;6.60;3.53;;;;;;;22.19;54.10;101769.03;5131614;28;20918;-52
2022/08/13 02:45:05;;;;;;;6.07;3.67;;;;;;;22.15;54.12;101764.25;5138006;28;20503;-58
2022/08/13 02:47:37;;;;;;;6.85;3.28;;;;;;;22.15;54.05;101764.25;5137187;28;20481;-58
2022/08/13 02:50:09;;;;;;;4.35;3.00;;;;;;;22.13;53.83;101766.31;5125821;28;20422;-55
2022/08/13 02:52:43;;;;;;;6.63;3.45;;;;;;;22.10;53.79;101784.50;5133381;28;20422;-58
2022/08/13 02:55:17;;;;;;;4.72;3.58;;;;;;;22.08;53.91;101767.75;5134726;28;21016;-53
2022/08/13 02:57:49;;;;;;;5.55;3.30;;;;;;;22.06;53.78;101766.31;5135226;28;20466;-44
2022/08/13 03:00:22;;;;;;;5.53;3.60;;;;;;;22.03;53.47;101772.09;5134050;28;20866;-57
2022/08/13 03:02:56;;;;;;;9.10;3.70;;;;;;;22.00;53.68;101767.94;5129691;28;20499;-57
2022/08/13 03:05:30;;;;;;;8.07;3.72;;;;;;;21.97;53.70;101762.97;5142541;28;20881;-52
2022/08/13 03:08:04;;;;;;;6.80;3.17;;;;;;;21.92;53.72;101765.44;5143545;28;20801;-59
2022/08/13 03:10:40;;;;;;;5.22;3.08;;;;;;;21.77;53.76;101756.69;5132475;28;20493;-58
2022/08/13 03:13:19;;;;;;;4.77;3.77;;;;;;;21.80;53.76;101773.28;5131316;28;20509;-58
2022/08/13 03:15:55;;;;;;;5.80;3.33;;;;;;;21.78;53.84;101769.13;5131606;28;20517;-58
2022/08/13 03:18:28;;;;;;;5.67;3.70;;;;;;;21.74;53.73;101767.84;5130238;28;21043;-56
2022/08/13 03:21:01;;;;;;;4.78;3.20;;;;;;;21.69;53.59;101759.56;5131246;28;20427;-59
2022/08/13 03:23:35;;;;;;;4.88;2.88;;;;;;;21.68;53.54;101772.19;5143428;28;20434;-57
2022/08/13 03:26:09;;;;;;;7.50;3.30;;;;;;;21.66;53.63;101765.34;5136305;28;20440;-51
2022/08/13 03:28:41;;;;;;;7.95;3.30;;;;;;;21.61;53.66;101769.44;5140663;28;20430;-56
2022/08/13 03:31:15;;;;;;;4.93;3.50;;;;;;;21.57;53.64;101772.75;5130644;28;21108;-56
2022/08/13 03:33:47;;;;;;;8.20;3.25;;;;;;;21.51;53.77;101763.63;5135916;28;20698;-57
2022/08/13 03:36:20;;;;;;;5.20;3.00;;;;;;;21.46;53.76;101774.13;5132288;28;20433;-58
2022/08/13 03:38:52;;;;;;;4.03;2.92;;;;;;;21.42;53.77;101772.88;5138962;28;20430;-58
2022/08/13 03:41:27;;;;;;;5.32;2.95;;;;;;;21.38;53.48;101775.13;5139856;28;20972;-57
2022/08/13 03:47:45;;;;;;;6.78;3.47;;;;;;;21.27;53.75;101761.38;5134669;28;20784;-57
2022/08/13 03:50:36;;;;;;;6.05;3.45;;;;;;;21.25;53.87;101768.84;5145654;28;20453;-58
2022/08/13 03:53:09;;;;;;;5.50;2.80;;;;;;;21.22;53.89;101769.22;5133922;28;20867;-57
2022/08/13 03:55:42;;;;;;;5.80;3.60;;;;;;;21.19;53.88;101763.22;5131445;28;20451;-57
2022/08/13 03:58:17;;;;;;;5.88;3.17;;;;;;;21.17;53.70;101765.25;5131032;28;20843;-58
2022/08/13 04:00:49;;;;;;;5.22;3.50;;;;;;;21.13;53.93;101761.31;5133010;28;20885;-55
2022/08/13 04:03:25;;;;;;;5.45;3.20;;;;;;;21.11;54.02;101768.72;5143497;28;20956;-58
2022/08/13 04:06:00;;;;;;;8.30;3.33;;;;;;;21.09;54.10;101757.38;5133498;28;20460;-59
2022/08/13 04:08:36;;;;;;;7.25;3.67;;;;;;;21.09;53.92;101765.44;5134509;28;20721;-58
2022/08/13 04:11:11;;;;;;;5.90;3.60;;;;;;;21.09;53.77;101769.94;5145210;28;20439;-58
2022/08/13 04:13:46;;;;;;;5.80;3.50;;;;;;;21.09;53.68;101769.94;5145958;28;20428;-58
2022/08/13 04:16:23;;;;;;;5.43;3.80;;;;;;;20.89;53.79;101732.25;5138750;28;20436;-49
2022/08/13 04:22:52;;;;;;;6.38;3.80;;;;;;;21.04;53.82;101767.03;5177053;28;20838;-58
2022/08/13 04:25:25;;;;;;;4.90;3.30;;;;;;;21.04;53.91;101762.50;5181544;28;20923;-57
2022/08/13 04:27:58;;;;;;;5.50;3.58;;;;;;;21.02;53.73;101763.72;5182917;28;20872;-57
2022/08/13 04:30:41;;;;;;;7.35;2.90;;;;;;;21.00;53.85;101763.94;5181806;28;20762;-56
2022/08/13 04:33:15;;;;;;;6.90;3.17;;;;;;;21.02;53.81;101761.84;5178802;28;20759;-57
2022/08/13 04:35:48;;;;;;;10.32;3.97;;;;;;;21.02;53.76;101758.34;5183638;28;20433;-53
2022/08/13 04:38:20;;;;;;;6.05;3.20;;;;;;;21.01;53.72;101752.16;5178591;28;20421;-58
2022/08/13 04:40:53;;;;;;;8.23;3.50;;;;;;;21.06;53.46;101752.41;5182690;28;20889;-57
2022/08/13 04:43:26;;;;;;;8.10;3.40;;;;;;;21.08;53.39;101758.38;5174641;28;20427;-58
2022/08/13 04:46:00;;;;;;;7.07;3.35;;;;;;;21.08;53.54;101755.69;5181613;28;20437;-58
2022/08/13 04:48:33;;;;;;;4.80;2.90;;;;;;;20.59;53.42;101673.38;5178543;28;20892;-58
2022/08/13 04:51:06;;;;;;;8.33;3.20;;;;;;;21.14;53.27;101757.59;5181590;28;20426;-57
2022/08/13 04:53:40;;;;;;;3.80;2.90;;;;;;;21.15;53.09;101753.03;5176298;28;20452;-58
2022/08/13 04:56:13;;;;;;;5.43;3.37;;;;;;;21.16;53.04;101757.41;5185296;28;20421;-58
2022/08/13 04:58:45;;;;;;;6.40;3.03;;;;;;;21.19;53.04;101757.84;5179399;28;20854;-54
2022/08/13 05:01:20;;;;;;;13.07;4.07;;;;;;;21.24;52.79;101759.94;5180722;28;20896;-58
2022/08/13 05:03:52;;;;;;;4.95;3.08;;;;;;;21.25;52.75;101763.47;5178378;28;20865;-59
2022/08/13 05:06:26;;;;;;;7.75;3.08;;;;;;;21.25;52.90;101763.47;5181758;28;20640;-58
2022/08/13 05:09:01;;;;;;;6.13;2.70;;;;;;;21.30;52.72;101763.69;5181991;28;20946;-58
2022/08/13 05:12:33;;;;;;;6.18;2.63;;;;;;;21.32;52.49;101765.16;5178094;28;22726;-56
2022/08/13 05:15:07;;;;;;;7.38;2.88;;;;;;;21.36;52.42;101768.28;5176694;28;20885;-59
2022/08/13 05:17:41;;;;;;;11.20;2.67;;;;;;;21.39;52.28;101771.41;5179298;28;20863;-56
2022/08/13 05:20:15;;;;;;;5.90;2.60;;;;;;;21.43;52.19;101766.50;5180803;28;20880;-57
2022/08/13 05:22:47;;;;;;;5.88;2.60;;;;;;;21.47;52.20;101765.06;5179639;28;20441;-59
2022/08/13 05:25:19;;;;;;;5.15;2.72;;;;;;;21.53;51.98;101766.94;5181363;28;20888;-49
2022/08/13 05:27:53;;;;;;;3.00;2.30;;;;;;;21.57;51.77;101762.00;5179154;28;20868;-56
2022/08/13 05:30:26;;;;;;;6.38;2.78;;;;;;;21.59;51.72;101760.78;5181989;28;20518;-59
2022/08/13 05:33:00;;;;;;;3.85;2.60;;;;;;;21.67;51.58;101764.31;5181662;28;20421;-58
2022/08/13 05:35:33;;;;;;;6.53;2.47;;;;;;;21.73;51.46;101760.81;5181028;28;20431;-58
2022/08/13 05:38:05;;;;;;;7.63;3.10;;;;;;;21.77;51.27;101762.06;5180358;28;20612;-55
2022/08/13 05:40:39;;;;;;;4.40;2.70;;;;;;;21.82;51.17;101771.19;5179944;28;20470;-56
2022/08/13 05:43:13;;;;;;;8.98;3.03;;;;;;;21.90;51.16;101769.38;5181166;28;20872;-58
2022/08/13 05:45:57;;;;;;;4.22;2.45;;;;;;;21.95;51.08;101775.78;5179146;28;20786;-59
2022/08/13 05:48:33;;;;;;;5.00;2.40;;;;;;;22.03;50.69;101762.16;5180493;28;20969;-57
2022/08/13 05:51:08;;;;;;;5.43;2.70;;;;;;;22.13;50.63;101766.31;5180054;28;20467;-58
2022/08/13 05:53:42;;;;;;;5.80;2.40;;;;;;;22.66;50.00;101756.44;5183270;28;22246;-58
2022/08/13 05:56:15;;;;;;;4.28;2.40;;;;;;;24.19;48.20;101761.41;5179468;28;20529;-49
2022/08/13 05:58:47;;;;;;;6.00;2.15;;;;;;;25.74;46.38;101763.25;5178991;28;20961;-58
2022/08/13 06:04:11;;;;;;;9.95;2.28;;;;;;;28.66;42.76;101762.34;5150577;28;20446;-59
2022/08/13 06:10:36;;;;;;;9.88;1.90;;;;;;;31.20;39.49;101763.38;5181805;28;20433;-57
2022/08/13 06:13:13;;;;;;;8.32;1.75;;;;;;;31.89;38.53;101758.72;5179698;28;20426;-60
2022/08/13 06:15:57;;;;;;;6.37;1.57;;;;;;;32.30;37.56;101765.06;5178942;28;20552;-55
2022/08/13 06:18:33;;;;;;;7.88;1.75;;;;;;;32.88;36.89;101759.22;5191470;28;20421;-58
2022/08/13 06:21:09;;;;;;;2.30;1.70;;;;;;;33.35;35.87;101762.66;5183659;28;20427;-56
2022/08/13 06:24:21;;;;;;;6.00;1.60;;;;;;;33.87;35.17;101759.38;5187662;28;20719;-55
2022/08/13 06:26:53;;;;;;;3.10;1.80;;;;;;;34.50;33.86;101757.78;5176268;28;20425;-58
2022/08/13 06:29:28;;;;;;;5.82;1.92;;;;;;;35.21;33.28;101754.31;5179574;28;20429;-55
2022/08/13 06:32:03;;;;;;;4.82;1.33;;;;;;;35.83;32.03;101754.28;5180687;28;20865;-53
2022/08/13 06:34:35;;;;;;;3.00;1.63;;;;;;;36.37;31.40;101763.88;5181450;28;20793;-55
2022/08/13 06:37:09;;;;;;;5.50;1.55;;;;;;;37.16;30.58;101757.47;5178512;28;20433;-56
2022/08/13 06:39:44;;;;;;;3.95;1.70;;;;;;;37.60;29.83;101756.81;5181122;28;20404;-53
2022/08/13 06:42:17;;;;;;;5.50;1.50;;;;;;;37.69;29.67;101767.06;5175369;28;20747;-54
2022/08/13 06:44:50;;;;;;;2.53;1.42;;;;;;;37.81;29.42;101770.09;5182083;28;20816;-57
2022/08/13 06:47:25;;;;;;;3.35;1.20;;;;;;;38.08;29.18;101765.63;5174824;28;20425;-55
2022/08/13 06:49:59;;;;;;;5.10;1.50;;;;;;;38.51;28.21;101769.47;5180712;28;20447;-54
2022/08/13 06:52:33;;;;;;;1.88;1.50;;;;;;;38.86;27.92;101755.84;5176731;28;20996;-52
2022/08/13 06:55:08;;;;;;;4.95;1.10;;;;;;;39.20;27.40;101762.59;5181654;28;20456;-58
2022/08/13 06:57:41;;;;;;;4.20;1.52;;;;;;;39.36;27.11;101758.25;5182766;28;20428;-55
2022/08/13 07:00:15;;;;;;;2.95;1.30;;;;;;;39.56;26.63;101758.78;5180223;28;20811;-54
2022/08/13 07:02:47;;;;;;;3.72;1.52;;;;;;;39.76;26.49;101757.31;5181110;28;20737;-54
2022/08/13 07:05:38;;;;;;;4.63;1.60;;;;;;;39.45;26.59;101765.75;5176927;28;20900;-50
2022/08/13 07:08:13;;;;;;;4.38;1.20;;;;;;;39.27;26.62;101768.44;5178393;28;20403;-54
2022/08/13 07:11:21;;;;;;;4.40;1.30;;;;;;;39.27;26.37;101742.75;5179824;28;20428;-55
2022/08/13 07:13:41;;;;;;;3.77;1.77;;;;;;;39.80;25.99;101764.66;5180615;28;20487;-50
2022/08/13 07:16:16;;;;;;;4.80;1.50;;;;;;;39.86;25.74;101768.88;5182891;28;20419;-48
2022/08/13 07:18:51;;;;;;;3.55;1.73;;;;;;;39.96;25.67;101764.97;5184027;28;20417;-53
2022/08/13 07:21:25;;;;;;;4.65;1.35;;;;;;;40.03;25.56;101768.03;5180654;28;20750;-53
2022/08/13 07:24:02;;;;;;;6.17;1.30;;;;;;;39.82;25.39;101751.28;5184686;28;20417;-53
2022/08/13 07:26:35;;;;;;;4.93;1.20;;;;;;;40.02;25.14;101760.88;5191896;28;20744;-53
2022/08/13 07:29:09;;;;;;;1.55;1.15;;;;;;;39.72;25.32;101762.66;5185241;28;20422;-51
2022/08/13 07:31:41;;;;;;;2.92;1.33;;;;;;;39.74;25.14;101760.44;5187926;28;20755;-55
2022/08/13 07:34:13;;;;;;;2.67;1.33;;;;;;;39.84;25.23;101771.16;5188070;28;20885;-53
2022/08/13 07:36:46;;;;;;;3.78;1.20;;;;;;;39.89;24.91;101761.84;5185240;28;20722;-52
2022/08/13 07:39:19;;;;;;;2.40;1.30;;;;;;;39.64;25.16;101766.22;5189179;28;20736;-51
2022/08/13 07:41:52;;;;;;;1.70;1.03;;;;;;;39.32;25.19;101773.06;5180262;28;20854;-49
2022/08/13 07:44:25;;;;;;;3.20;1.20;;;;;;;39.26;25.07;101766.81;5180015;28;20536;-54
2022/08/13 07:46:59;;;;;;;1.60;1.38;;;;;;;39.48;25.05;101765.09;5184491;28;20830;-53
2022/08/13 07:49:33;;;;;;;4.22;1.30;;;;;;;39.74;24.72;101767.91;5187866;28;20948;-52
2022/08/13 07:52:07;;;;;;;2.70;1.00;;;;;;;39.87;24.71;101770.50;5179182;28;20770;-49
2022/08/13 07:54:41;;;;;;;1.92;1.20;;;;;;;39.82;24.55;101770.66;5182308;28;20853;-50
2022/08/13 07:57:13;;;;;;;4.45;1.48;;;;;;;39.52;24.75;101774.38;5182047;28;20457;-50
2022/08/13 07:59:46;;;;;;;2.85;1.10;;;;;;;39.71;24.64;101772.13;5184482;28;20417;-54
2022/08/13 08:02:19;;;;;;;2.45;1.10;;;;;;;39.58;24.63;101773.06;5186627;28;20407;-53
2022/08/13 08:04:53;;;;;;;3.40;1.30;;;;;;;39.33;24.92;101775.47;5181115;28;20432;-53
2022/08/13 08:07:26;;;;;;;2.88;1.02;;;;;;;39.08;24.91;101773.44;5178061;28;22164;-53
2022/08/13 08:10:00;;;;;;;3.90;1.27;;;;;;;38.83;25.05;101784.06;5180343;28;20732;-53
2022/08/13 08:12:35;;;;;;;3.33;1.00;;;;;;;38.47;25.32;101779.53;5178746;28;20770;-50
2022/08/13 08:15:09;;;;;;;1.80;0.88;;;;;;;38.25;25.40;101787.78;5183942;28;20804;-50
2022/08/13 08:17:42;;;;;;;3.20;1.10;;;;;;;38.16;25.45;101773.97;5184020;28;20879;-53
2022/08/13 08:20:21;;;;;;;3.60;1.20;;;;;;;37.96;25.61;101768.94;5186528;28;20433;-51
2022/08/13 08:22:53;;;;;;;5.07;1.10;;;;;;;37.80;25.71;101783.06;5172331;28;20419;-53
2022/08/13 08:25:28;;;;;;;3.03;1.15;;;;;;;37.20;26.37;101782.44;5174607;28;20425;-53
2022/08/13 08:28:00;;;;;;;6.15;1.20;;;;;;;36.64;26.55;101778.84;5174150;28;20427;-52
2022/08/13 08:30:36;;;;;;;1.20;1.00;;;;;;;36.05;26.85;101778.47;5172237;28;20908;-52
2022/08/13 08:33:09;;;;;;;2.00;0.98;;;;;;;35.89;27.03;101790.75;5175944;28;20554;-53
2022/08/13 08:35:42;;;;;;;1.20;0.80;;;;;;;35.98;27.07;101777.97;5180803;28;20431;-52
2022/08/13 08:44:00;;;;;;;2.70;1.20;;;;;;;35.77;27.07;101789.31;5174880;28;20894;-53
2022/08/13 08:46:34;;;;;;;3.55;0.98;;;;;;;35.59;27.21;101792.03;5179525;28;20823;-52
2022/08/13 08:49:09;;;;;;;4.00;1.00;;;;;;;35.25;27.22;101782.81;5168832;28;20827;-52
2022/08/13 08:51:42;;;;;;;2.53;1.27;;;;;;;35.15;27.57;101782.94;5175501;28;20419;-51
2022/08/13 08:54:15;;;;;;;2.03;1.08;;;;;;;34.89;27.48;101788.69;5172965;28;20446;-50
2022/08/13 08:56:54;;;;;;;2.40;1.07;;;;;;;34.75;27.69;101779.53;5170277;28;20480;-52
2022/08/13 08:59:31;;;;;;;5.15;1.15;;;;;;;34.75;27.54;101782.28;5168985;28;20865;-49
2022/08/13 09:02:18;;;;;;;4.05;0.95;;;;;;;34.63;27.40;101777.19;5173698;28;20919;-52
2022/08/13 09:04:54;;;;;;;9.90;1.03;;;;;;;34.42;27.35;101783.94;5167038;28;20412;-49
2022/08/13 09:07:29;;;;;;;6.80;0.90;;;;;;;34.11;27.52;101791.59;5172147;28;20516;-52
2022/08/13 09:10:01;;;;;;;2.20;1.20;;;;;;;33.73;28.21;101780.31;5175449;28;20486;-48
2022/08/13 09:12:36;;;;;;;4.32;1.00;;;;;;;33.55;28.10;101778.22;5165558;28;20759;-55
2022/08/13 09:15:10;;;;;;;2.47;1.10;;;;;;;33.31;28.44;101789.78;5165497;28;20423;-47
2022/08/13 09:17:43;;;;;;;1.88;1.17;;;;;;;33.23;28.30;101787.63;5169424;28;20840;-48
2022/08/13 09:20:19;;;;;;;3.20;1.40;;;;;;;33.04;28.26;101780.00;5163361;28;20859;-52
2022/08/13 09:23:04;;;;;;;2.35;1.10;;;;;;;32.90;28.54;101784.41;5173026;28;20782;-51
2022/08/13 09:25:41;;;;;;;5.65;1.50;;;;;;;32.91;28.39;101780.56;5183931;28;20431;-49
2022/08/13 09:28:17;;;;;;;4.95;1.40;;;;;;;32.93;28.18;101778.38;5183811;28;20429;-51
2022/08/13 09:30:50;;;;;;;4.10;1.90;;;;;;;33.02;28.42;101775.94;5184798;28;20473;-49
2022/08/13 09:33:28;;;;;;;4.22;1.42;;;;;;;33.10;28.36;101777.28;5183692;28;20440;-52
2022/08/13 09:36:01;;;;;;;2.92;1.20;;;;;;;33.01;28.07;101774.28;5181128;28;20425;-53
2022/08/13 09:38:35;;;;;;;2.95;1.20;;;;;;;33.00;28.16;101773.47;5182048;28;20895;-52
2022/08/13 09:41:17;;;;;;;3.17;1.10;;;;;;;33.07;27.98;101773.16;5193382;28;20424;-48
2022/08/13 09:43:51;;;;;;;6.68;1.20;;;;;;;33.09;28.07;101770.16;5192056;28;20561;-54
2022/08/13 09:46:24;;;;;;;2.10;1.10;;;;;;;33.03;28.01;101772.09;5189737;28;20807;-52
2022/08/13 09:48:57;;;;;;;6.10;1.40;;;;;;;32.71;28.44;101764.22;5190025;28;20422;-51
2022/08/13 09:51:34;;;;;;;4.07;1.30;;;;;;;32.55;28.62;101766.97;5191564;28;20739;-50
2022/08/13 09:54:09;;;;;;;3.17;1.17;;;;;;;32.43;28.69;101760.94;5195344;28;20569;-49
2022/08/13 09:56:41;;;;;;;5.80;1.23;;;;;;;32.45;28.85;101761.50;5191253;28;20491;-53
2022/08/13 09:59:15;;;;;;;2.97;1.25;;;;;;;32.45;28.39;101761.50;5191951;28;20812;-50
2022/08/13 10:01:49;;;;;;;2.83;1.10;;;;;;;32.35;28.53;101761.47;5192759;28;20909;-51
2022/08/13 10:04:22;;;;;;;2.10;1.10;;;;;;;32.48;28.51;101766.41;5178392;28;20901;-49
2022/08/13 10:06:56;;;;;;;4.60;1.13;;;;;;;32.47;28.08;101759.31;5174190;28;20419;-49
2022/08/13 10:09:28;;;;;;;2.25;0.80;;;;;;;32.48;28.21;101754.66;5186950;28;22377;-49
2022/08/13 10:12:01;;;;;;;2.38;1.13;;;;;;;32.58;27.98;101754.63;5192312;28;20506;-48
2022/08/13 10:14:36;;;;;;;3.23;1.03;;;;;;;32.27;27.83;101719.13;5192815;28;20546;-49
2022/08/13 10:17:08;;;;;;;3.40;1.10;;;;;;;32.35;27.68;101740.44;5193083;28;20445;-52
2022/08/13 10:19:40;;;;;;;1.60;1.00;;;;;;;32.49;27.74;101746.19;5193682;28;20470;-53
2022/08/13 10:22:13;;;;;;;2.95;1.35;;;;;;;32.65;27.75;101736.06;5188194;28;20934;-49
2022/08/13 10:24:45;;;;;;;3.60;1.08;;;;;;;32.88;27.35;101737.34;5178703;28;20417;-52
2022/08/13 10:27:17;;;;;;;4.57;1.15;;;;;;;32.87;27.42;101730.25;5175092;28;20470;-48
2022/08/13 10:29:51;;;;;;;3.55;0.90;;;;;;;32.91;27.16;101725.84;5168626;28;20449;-40
2022/08/13 10:32:24;;;;;;;2.78;0.95;;;;;;;33.13;27.22;101732.91;5168035;28;21132;-53
2022/08/13 10:34:56;;;;;;;9.48;1.00;;;;;;;33.26;26.83;101737.78;5173276;28;20421;-49
2022/08/13 10:37:29;;;;;;;3.25;1.13;;;;;;;33.31;26.76;101726.81;5169049;28;20721;-51
2022/08/13 10:40:02;;;;;;;3.15;1.00;;;;;;;33.18;26.78;101727.44;5169881;28;20824;-47
2022/08/13 10:42:34;;;;;;;6.15;1.75;;;;;;;33.15;26.70;101725.25;5171748;28;20867;-49
2022/08/13 10:45:10;;;;;;;5.33;1.53;;;;;;;33.14;26.73;101718.13;5170646;28;20429;-52
2022/08/13 10:47:47;;;;;;;1.83;1.15;;;;;;;33.18;26.68;101725.50;5164575;28;20422;-47
2022/08/13 10:50:22;;;;;;;8.50;1.43;;;;;;;33.20;26.85;101719.72;5164583;28;20901;-49
2022/08/13 10:52:55;;;;;;;3.03;1.20;;;;;;;33.13;26.55;101721.97;5161731;28;21055;-50
2022/08/13 10:55:29;;;;;;;2.75;1.50;;;;;;;32.96;26.74;101717.63;5159089;28;20868;-50
2022/08/13 10:58:13;;;;;;;2.80;1.55;;;;;;;33.04;26.63;101725.28;5162409;28;20851;-52
2022/08/13 11:00:47;;;;;;;3.92;1.15;;;;;;;33.12;26.80;101721.16;5162150;28;20407;-46
2022/08/13 11:04:17;;;;;;;4.45;1.30;;;;;;;33.34;26.35;101722.69;5163241;28;20431;-54
2022/08/13 11:06:49;;;;;;;1.88;0.90;;;;;;;33.45;26.63;101711.41;5165625;28;20446;-52
2022/08/13 11:09:24;;;;;;;4.30;1.30;;;;;;;33.37;26.72;101720.22;5171803;28;20833;-50
2022/08/13 11:15:42;;;;;;;3.72;1.08;;;;;;;32.95;27.08;101721.47;5179326;28;20922;-52
2022/08/13 11:18:16;;;;;;;2.33;1.00;;;;;;;32.94;27.11;101714.34;5171827;28;20780;-52
2022/08/13 11:21:03;;;;;;;3.95;1.10;;;;;;;33.03;26.87;101714.63;5175446;28;21232;-51
2022/08/13 11:23:36;;;;;;;2.95;1.08;;;;;;;33.01;27.12;101714.88;5176866;28;20425;-53
2022/08/13 11:26:08;;;;;;;2.00;1.17;;;;;;;33.04;27.04;101702.56;5174295;28;20873;-51
2022/08/13 11:28:41;;;;;;;5.45;1.45;;;;;;;33.02;27.19;101700.13;5178449;28;20565;-48
2022/08/13 11:31:13;;;;;;;3.17;1.57;;;;;;;32.94;27.20;101708.88;5186901;28;20896;-46
2022/08/13 11:33:47;;;;;;;2.13;1.00;;;;;;;32.91;26.97;101709.44;5186567;28;20746;-51
2022/08/13 11:36:19;;;;;;;4.57;0.90;;;;;;;32.99;27.13;101699.88;5186673;28;20804;-49
2022/08/13 11:38:52;;;;;;;1.63;1.00;;;;;;;33.05;26.77;101699.56;5195309;28;20422;-49
2022/08/13 11:41:24;;;;;;;1.30;0.80;;;;;;;32.98;26.98;101701.75;5198525;28;20458;-52
2022/08/13 11:43:56;;;;;;;5.50;1.17;;;;;;;33.03;27.09;101696.28;5182197;28;20421;-49
2022/08/13 11:46:29;;;;;;;2.55;1.17;;;;;;;32.94;26.98;101686.97;5196801;28;20720;-51
2022/08/13 11:49:03;;;;;;;4.00;0.90;;;;;;;33.00;26.86;101694.09;5184102;28;20483;-52
2022/08/13 11:51:35;;;;;;;1.35;1.00;;;;;;;33.05;26.93;101683.16;5178349;28;20868;-52
2022/08/13 11:54:07;;;;;;;0.80;0.80;;;;;;;33.14;26.58;101685.28;5190197;28;20423;-52
2022/08/13 11:56:40;;;;;;;1.60;1.00;;;;;;;33.26;26.34;101685.75;5187754;28;20926;-48
2022/08/13 11:59:12;;;;;;;4.43;1.25;;;;;;;33.31;26.22;101680.25;5185304;28;20440;-50
2022/08/13 12:01:44;;;;;;;3.50;1.30;;;;;;;33.31;26.58;101680.25;5188330;28;20911;-53
2022/08/13 12:04:18;;;;;;;4.37;1.00;;;;;;;33.32;26.45;101681.09;5193129;28;20503;-51
2022/08/13 12:06:50;;;;;;;3.20;1.02;;;;;;;33.42;26.53;101686.53;5197936;28;20850;-46
2022/08/13 12:09:23;;;;;;;3.80;1.10;;;;;;;33.48;26.34;101680.72;5195805;28;20740;-47
2022/08/13 12:11:56;;;;;;;1.95;1.15;;;;;;;33.52;25.97;101675.53;5197078;28;21114;-48
2022/08/13 12:14:28;;;;;;;5.60;1.23;;;;;;;33.68;25.83;101678.97;5195850;28;20846;-50
2022/08/13 12:17:00;;;;;;;2.58;1.02;;;;;;;33.66;26.05;101678.44;5193282;28;20427;-48
2022/08/13 12:19:35;;;;;;;3.50;1.10;;;;;;;33.88;25.93;101673.34;5197107;28;20428;-48
2022/08/13 12:22:07;;;;;;;3.63;1.02;;;;;;;33.99;25.51;101660.34;5196641;28;20737;-52
2022/08/13 12:24:39;;;;;;;4.17;1.00;;;;;;;34.02;25.38;101672.66;5195643;28;20874;-51
2022/08/13 12:27:13;;;;;;;2.03;0.95;;;;;;;34.18;25.44;101676.94;5197940;28;20426;-50
2022/08/13 12:29:45;;;;;;;3.67;0.90;;;;;;;34.11;25.11;101665.50;5196747;28;20838;-51
2022/08/13 12:32:17;;;;;;;3.95;1.00;;;;;;;34.07;25.31;101661.66;5193360;28;20882;-52